Time;durP1;ratioP1;P1;durP2;ratioP2;P2;SDS_P1;SDS_P2;PMS_P1;PMS_P2;Temp;Humidity;BMP_temperature;BMP_pressure;BME280_temperature;BME280_humidity;BME280_pressure;Samples;Min_cycle;Max_cycle;Signal;HPM_P1;HPM_P2
2023/10/16 00:01:11;;;;;;;3.43;2.07;;;6.00;76.70;;;8.13;52.37;98255.88;5010982;28;20228;-54
2023/10/16 00:03:43;;;;;;;2.93;1.57;;;6.00;76.50;;;8.11;52.37;98257.81;5009465;28;20053;-55
2023/10/16 00:06:12;;;;;;;4.10;1.80;;;6.00;77.00;;;8.08;52.75;98263.38;5017826;28;20038;-55
2023/10/16 00:08:47;;;;;;;3.30;1.67;;;6.00;77.30;;;8.07;52.34;98253.75;5017581;28;20073;-52
2023/10/16 00:11:18;;;;;;;3.87;1.90;;;6.00;77.00;;;8.04;52.44;98249.53;5010848;28;20057;-52
2023/10/16 00:13:47;;;;;;;2.03;1.43;;;5.90;76.10;;;8.03;52.45;98252.34;5010512;28;20049;-56
2023/10/16 00:16:18;;;;;;;3.20;1.70;;;5.90;76.40;;;8.00;52.57;98249.94;5010700;28;20042;-55
2023/10/16 00:18:46;;;;;;;3.00;1.70;;;5.90;76.40;;;7.99;52.62;98253.56;5011858;28;20049;-53
2023/10/16 00:21:14;;;;;;;2.97;1.80;;;5.90;77.00;;;8.00;52.42;98268.50;5014669;28;20417;-53
2023/10/16 00:23:42;;;;;;;3.93;1.70;;;5.90;76.60;;;7.99;52.74;98261.53;5014555;28;20049;-56
2023/10/16 00:26:12;;;;;;;3.43;1.57;;;5.90;77.00;;;7.98;52.63;98258.00;5014566;28;20053;-51
2023/10/16 00:28:45;;;;;;;4.67;1.63;;;5.90;76.90;;;7.94;52.45;98253.94;5014638;28;20049;-50
2023/10/16 00:31:22;;;;;;;2.03;1.70;;;5.80;76.50;;;7.89;52.91;98258.81;5014371;28;20046;-54
2023/10/16 00:33:53;;;;;;;2.80;1.80;;;5.80;77.30;;;7.84;52.63;98256.53;5012966;28;20053;-52
2023/10/16 00:36:24;;;;;;;6.20;2.27;;;5.70;77.60;;;7.83;52.82;98248.69;5012927;28;20042;-52
2023/10/16 00:38:51;;;;;;;3.57;2.13;;;5.70;77.60;;;7.83;52.97;98249.56;5013992;28;20038;-53
2023/10/16 00:41:28;;;;;;;5.07;2.13;;;5.70;77.80;;;7.82;52.79;98245.22;5014370;28;20050;-55
2023/10/16 00:43:57;;;;;;;4.33;2.60;;;5.70;76.90;;;7.79;53.11;98258.75;5014101;28;20069;-52
2023/10/16 00:46:30;;;;;;;3.23;1.60;;;5.60;77.30;;;7.76;53.04;98248.38;5013360;28;20061;-50
2023/10/16 00:48:58;;;;;;;5.90;2.22;;;5.70;77.80;;;7.74;53.18;98255.63;5004315;28;20057;-54
2023/10/16 00:51:28;;;;;;;3.53;2.07;;;5.70;77.40;;;7.73;53.01;98240.69;5021266;28;20064;-54
2023/10/16 00:54:26;;;;;;;3.07;2.20;;;5.60;77.50;;;7.71;53.08;98236.50;4998719;28;20050;-54
2023/10/16 00:56:59;;;;;;;4.50;1.90;;;5.60;78.10;;;7.72;52.89;98233.72;5020997;28;20037;-54
2023/10/16 00:59:31;;;;;;;3.25;2.05;;;5.60;77.50;;;7.72;52.91;98240.84;5012925;28;20046;-52
2023/10/16 01:02:15;;;;;;;4.37;2.20;;;5.60;77.60;;;7.69;52.78;98226.84;5012711;28;20033;-53
2023/10/16 01:04:43;;;;;;;3.13;2.10;;;5.50;77.20;;;7.68;53.05;98222.53;5013954;28;20046;-52
2023/10/16 01:07:14;;;;;;;5.60;1.80;;;5.60;77.10;;;7.66;52.93;98229.78;5004356;28;20402;-53
2023/10/16 01:09:46;;;;;;;3.20;1.97;;;5.60;77.00;;;7.65;53.30;98230.72;5013527;28;20046;-54
2023/10/16 01:12:14;;;;;;;5.20;1.73;;;5.50;77.20;;;7.60;53.12;98226.78;5012226;28;20050;-56
2023/10/16 01:14:42;;;;;;;2.37;1.50;;;5.40;77.70;;;7.57;53.40;98213.81;5013642;28;20121;-55
2023/10/16 01:17:10;;;;;;;1.60;1.37;;;5.40;77.60;;;7.53;52.88;98209.72;5012182;28;20069;-53
2023/10/16 01:19:44;;;;;;;3.70;1.73;;;5.30;78.00;;;7.49;53.31;98217.09;5013002;28;20053;-53
2023/10/16 01:22:13;;;;;;;2.83;1.90;;;5.30;78.70;;;7.47;53.32;98211.91;5012078;28;20054;-56
2023/10/16 01:24:45;;;;;;;3.63;1.97;;;5.30;78.80;;;7.46;53.43;98212.91;5004242;28;20528;-55
2023/10/16 01:27:29;;;;;;;3.90;1.60;;;5.30;78.80;;;7.42;53.47;98210.59;5013535;28;20057;-52
2023/10/16 01:29:59;;;;;;;1.77;1.40;;;5.20;78.60;;;7.36;53.31;98214.59;5010666;28;20383;-55
2023/10/16 01:32:29;;;;;;;2.63;1.50;;;5.10;79.10;;;7.34;53.60;98210.41;5013238;28;20059;-53
2023/10/16 01:34:59;;;;;;;2.90;1.70;;;5.10;79.30;;;7.27;53.92;98205.63;5013470;28;20053;-54
2023/10/16 01:37:27;;;;;;;1.73;1.33;;;5.10;79.70;;;7.27;53.89;98210.91;5013269;28;20054;-54
2023/10/16 01:40:15;;;;;;;2.07;1.63;;;5.10;80.00;;;7.28;53.84;98204.63;5011553;28;20058;-54
2023/10/16 01:42:43;;;;;;;3.07;1.60;;;5.10;79.40;;;7.25;53.40;98204.91;5012165;28;20061;-56
2023/10/16 01:45:12;;;;;;;2.73;1.60;;;5.10;79.20;;;7.22;53.90;98209.63;5011417;28;20042;-54
2023/10/16 01:47:41;;;;;;;4.40;1.77;;;5.10;79.50;;;7.19;53.99;98207.22;5012325;28;20417;-56
2023/10/16 01:50:20;;;;;;;2.57;1.40;;;5.00;79.80;;;7.17;53.67;98201.19;5008785;28;20046;-56
2023/10/16 01:52:49;;;;;;;2.60;2.00;;;5.00;79.70;;;7.18;53.74;98202.91;5026388;28;20061;-56
2023/10/16 01:55:19;;;;;;;3.13;1.53;;;5.00;79.20;;;7.15;53.65;98203.13;5012053;28;20050;-52
2023/10/16 01:57:47;;;;;;;1.67;1.37;;;5.00;79.50;;;7.14;53.82;98202.31;5010908;28;20057;-52
2023/10/16 02:00:17;;;;;;;3.90;1.60;;;5.00;79.10;;;7.13;54.04;98197.13;5012235;28;20053;-50
2023/10/16 02:02:45;;;;;;;4.73;1.90;;;5.00;79.30;;;7.10;53.92;98199.06;5003723;28;20077;-53
2023/10/16 02:05:14;;;;;;;4.33;1.77;;;5.10;79.10;;;7.10;54.27;98196.41;5011554;28;20057;-51
2023/10/16 02:07:43;;;;;;;3.70;2.07;;;5.00;79.10;;;7.08;54.19;98193.06;5010661;28;20050;-51
2023/10/16 02:10:14;;;;;;;6.20;1.63;;;5.00;78.90;;;7.10;54.04;98192.94;5011783;28;20433;-54
2023/10/16 02:12:42;;;;;;;2.93;1.73;;;5.00;78.50;;;7.07;53.28;98187.88;5010372;28;20041;-54
2023/10/16 02:15:10;;;;;;;4.20;1.80;;;5.00;78.00;;;7.04;53.52;98186.31;5012531;28;20038;-51
2023/10/16 02:17:39;;;;;;;2.90;1.80;;;4.90;78.10;;;7.03;53.82;98186.44;5012539;28;20042;-55
2023/10/16 02:20:13;;;;;;;2.10;1.77;;;4.90;78.80;;;7.01;53.98;98188.38;5003188;28;20046;-52
2023/10/16 02:22:42;;;;;;;2.20;1.63;;;4.90;79.20;;;7.01;54.07;98185.72;5012849;28;20517;-53
2023/10/16 02:25:12;;;;;;;2.53;1.70;;;4.90;78.60;;;7.01;53.82;98175.16;5004404;28;20041;-54
2023/10/16 02:27:41;;;;;;;2.10;1.40;;;4.90;78.70;;;6.99;54.01;98172.63;5010599;28;20058;-55
2023/10/16 02:33:10;;;;;;;3.25;1.60;;;4.90;78.50;;;7.00;54.07;98171.66;5012093;28;20061;-54
2023/10/16 02:35:37;;;;;;;2.83;1.67;;;5.00;78.10;;;7.00;53.39;98174.31;5012040;28;20049;-50
2023/10/16 02:38:05;;;;;;;3.93;1.70;;;4.90;77.70;;;7.00;53.40;98165.50;5011025;28;20057;-53
2023/10/16 02:40:35;;;;;;;1.80;1.47;;;5.00;78.10;;;7.02;53.72;98163.59;5012066;28;20042;-51
2023/10/16 02:43:04;;;;;;;2.80;1.63;;;5.00;77.90;;;7.01;53.60;98175.16;5011802;28;20057;-55
2023/10/16 02:45:33;;;;;;;6.40;1.97;;;5.00;77.30;;;6.98;54.06;98168.31;5010614;28;20054;-52
2023/10/16 02:48:02;;;;;;;4.83;1.70;;;4.90;77.60;;;6.98;53.51;98164.78;5010301;28;20050;-52
2023/10/16 02:50:30;;;;;;;4.10;2.13;;;4.90;77.80;;;6.95;53.71;98162.41;5011774;28;20042;-55
2023/10/16 02:52:58;;;;;;;4.47;1.70;;;5.00;77.50;;;6.96;53.37;98164.09;5010554;28;20425;-52
2023/10/16 02:55:25;;;;;;;3.23;2.10;;;4.90;77.10;;;6.95;53.58;98159.78;5009224;28;20060;-53
2023/10/16 02:57:53;;;;;;;2.63;2.13;;;4.90;77.40;;;6.94;54.04;98172.16;5011218;28;20053;-55
2023/10/16 03:00:25;;;;;;;3.77;2.30;;;4.90;77.80;;;6.92;53.66;98171.47;5010472;28;20046;-54
2023/10/16 03:02:53;;;;;;;3.70;2.00;;;4.90;78.20;;;6.90;53.62;98162.78;5010650;28;20061;-54
2023/10/16 03:05:25;;;;;;;2.57;1.63;;;4.80;77.60;;;6.85;53.60;98163.16;5011836;28;20489;-54
2023/10/16 03:07:52;;;;;;;3.33;1.40;;;4.80;78.50;;;6.86;54.27;98172.78;5010410;28;20061;-55
2023/10/16 03:10:22;;;;;;;3.33;2.03;;;4.80;78.40;;;6.85;54.07;98171.09;5012101;28;20042;-53
2023/10/16 03:12:50;;;;;;;3.33;1.93;;;4.80;78.30;;;6.83;53.91;98172.19;5010326;28;20081;-53
2023/10/16 03:15:21;;;;;;;3.63;2.20;;;4.80;78.10;;;6.82;53.98;98168.69;5018683;28;20050;-53
2023/10/16 03:17:53;;;;;;;2.73;2.03;;;4.80;78.30;;;6.82;53.73;98175.81;5009803;28;20046;-52
2023/10/16 03:20:35;;;;;;;4.65;2.15;;;4.80;78.10;;;6.84;53.93;98169.44;5011651;28;20038;-53
2023/10/16 03:23:07;;;;;;;3.43;2.63;;;4.90;78.00;;;6.83;54.33;98165.09;5011428;28;20047;-53
2023/10/16 03:28:11;;;;;;;3.13;2.00;;;4.80;77.60;;;6.82;53.78;98162.56;5010853;28;20054;-55
2023/10/16 03:30:42;;;;;;;2.47;2.07;;;4.80;77.90;;;6.80;54.06;98160.03;5011494;28;20497;-55
2023/10/16 03:33:14;;;;;;;4.17;2.77;;;4.80;77.90;;;6.79;54.19;98157.53;5011222;28;20049;-50
2023/10/16 03:35:45;;;;;;;3.20;2.20;;;4.70;77.90;;;6.78;54.05;98158.50;4993485;28;20057;-54
2023/10/16 03:38:26;;;;;;;6.83;2.53;;;4.80;78.50;;;6.79;53.59;98161.03;5017840;28;20048;-54
2023/10/16 03:40:56;;;;;;;5.90;2.50;;;4.80;78.10;;;6.77;54.24;98148.88;5011286;28;20042;-55
2023/10/16 03:43:25;;;;;;;3.37;3.03;;;4.70;77.60;;;6.73;53.50;98150.06;5011300;28;20517;-52
2023/10/16 03:45:52;;;;;;;3.53;2.00;;;4.60;77.50;;;6.69;53.36;98154.81;5010292;28;20064;-54
2023/10/16 03:48:21;;;;;;;5.87;2.60;;;4.50;78.60;;;6.66;53.79;98145.28;5010991;28;20051;-53
2023/10/16 03:50:56;;;;;;;7.47;5.77;;;4.50;79.50;;;6.64;54.50;98143.75;5010889;28;20057;-54
2023/10/16 03:53:24;;;;;;;6.17;5.57;;;4.50;79.60;;;6.64;54.05;98149.03;5010368;28;20057;-53
2023/10/16 03:55:52;;;;;;;5.10;3.50;;;4.60;79.80;;;6.64;53.90;98149.88;5011028;28;20052;-52
2023/10/16 03:58:19;;;;;;;5.30;3.10;;;4.60;79.40;;;6.64;54.77;98149.88;5003148;28;20053;-55
2023/10/16 04:00:52;;;;;;;3.13;2.60;;;4.70;79.30;;;6.63;54.80;98148.19;5011445;28;20049;-50
2023/10/16 04:03:25;;;;;;;3.90;2.55;;;4.60;78.90;;;6.60;53.96;98145.78;5003550;28;20498;-51
2023/10/16 04:05:53;;;;;;;4.60;2.80;;;4.60;79.50;;;6.59;54.86;98143.25;5010815;28;20048;-52
2023/10/16 04:08:21;;;;;;;4.27;2.70;;;4.60;79.80;;;6.58;54.75;98141.59;5010736;28;20077;-54
2023/10/16 04:10:53;;;;;;;4.77;3.40;;;4.50;79.60;;;6.55;54.52;98147.94;5011047;28;20046;-54
2023/10/16 04:13:27;;;;;;;4.43;3.30;;;4.50;80.10;;;6.55;54.64;98147.94;5002945;28;20065;-52
2023/10/16 04:18:33;;;;;;;5.73;3.70;;;4.50;79.10;;;6.54;54.88;98148.94;5010719;28;20045;-52
2023/10/16 04:50:29;;;;;;;6.30;3.43;;;4.50;78.10;;;6.53;54.14;98112.00;5010473;28;20068;-50
2023/10/16 04:53:21;;;;;;;4.30;3.90;;;4.50;78.40;;;6.52;54.05;98113.84;5010588;28;20426;-53
2023/10/16 04:55:53;;;;;;;4.03;3.27;;;4.50;78.60;;;6.49;54.25;98111.41;5010544;28;20513;-51
2023/10/16 05:13:16;;;;;;;9.33;3.27;;;4.20;83.40;;;6.27;55.99;98101.75;5006188;28;20046;-53
2023/10/16 05:17:30;;;;;;;4.53;3.17;;;4.20;84.40;;;6.31;55.51;98100.53;5013705;28;20046;-52
2023/10/16 06:15:37;;;;;;;5.53;3.77;;;4.60;83.20;;;6.49;56.16;98112.28;5005215;28;20052;-55
2023/10/16 06:18:06;;;;;;;5.13;3.13;;;4.60;83.00;;;6.54;55.76;98116.34;5012300;28;20361;-55
2023/10/16 06:20:37;;;;;;;6.80;3.37;;;4.70;83.10;;;6.57;56.68;98116.09;5012682;28;20042;-55
2023/10/16 06:23:09;;;;;;;5.13;3.40;;;4.80;82.80;;;6.59;56.18;98116.81;5012371;28;20049;-55
2023/10/16 06:25:37;;;;;;;4.77;3.30;;;4.70;82.90;;;6.63;56.52;98123.53;5004987;28;20391;-55
2023/10/16 06:28:11;;;;;;;6.10;3.40;;;4.80;83.30;;;6.64;56.83;98122.56;5011241;28;20034;-54
2023/10/16 06:30:38;;;;;;;4.65;3.42;;;4.80;83.60;;;6.68;56.68;98116.91;5005450;28;20046;-55
2023/10/16 06:33:06;;;;;;;6.37;3.43;;;4.80;83.50;;;6.71;56.08;98126.41;5012381;28;20041;-54
2023/10/16 06:35:34;;;;;;;5.10;3.70;;;4.90;83.50;;;6.74;56.89;98126.13;5012432;28;20046;-53
2023/10/16 06:38:10;;;;;;;4.80;3.73;;;4.90;83.50;;;6.78;56.49;98132.84;5012130;28;20050;-54
2023/10/16 06:40:40;;;;;;;5.33;4.00;;;5.00;83.50;;;6.82;56.89;98133.44;5004958;28;20413;-53
2023/10/16 06:43:11;;;;;;;5.87;3.67;;;5.00;83.50;;;6.85;56.58;98134.06;5019233;28;20509;-54
2023/10/16 06:45:41;;;;;;;6.33;3.57;;;5.00;83.40;;;6.90;56.51;98126.59;5001004;28;20052;-55
2023/10/16 06:48:14;;;;;;;7.97;4.27;;;5.10;83.60;;;6.94;56.62;98131.59;5011276;28;20038;-54
2023/10/16 06:50:53;;;;;;;5.38;3.47;;;5.10;83.40;;;6.97;57.04;98131.38;5018418;28;20056;-54
2023/10/16 06:53:23;;;;;;;5.87;4.03;;;5.10;83.40;;;7.00;56.31;98128.44;5016774;28;20073;-53
2023/10/16 06:55:51;;;;;;;5.60;3.70;;;5.20;83.40;;;7.03;56.47;98126.38;5010866;28;20049;-56
2023/10/16 06:58:21;;;;;;;7.77;4.67;;;5.20;83.00;;;7.07;56.94;98121.69;5004299;28;20403;-54
2023/10/16 07:00:52;;;;;;;6.93;4.00;;;5.20;83.30;;;7.10;57.01;98124.91;5004893;28;20038;-54
2023/10/16 07:03:20;;;;;;;4.90;3.87;;;5.30;83.20;;;7.14;56.94;98128.16;5008420;28;20202;-51
2023/10/16 07:05:48;;;;;;;7.63;4.57;;;5.30;82.60;;;7.18;56.90;98128.75;5010576;28;20042;-54
2023/10/16 07:08:18;;;;;;;6.53;3.97;;;5.40;83.80;;;7.19;56.88;98120.69;5009808;28;20042;-55
2023/10/16 07:10:55;;;;;;;8.33;4.37;;;5.40;82.80;;;7.22;57.03;98124.88;5010111;28;20049;-54
2023/10/16 07:13:27;;;;;;;6.37;4.07;;;5.40;82.70;;;7.24;56.69;98126.41;5009187;28;20548;-53
2023/10/16 07:16:05;;;;;;;7.68;4.82;;;5.50;82.70;;;7.28;56.78;98133.13;5016378;28;20297;-54
2023/10/16 07:18:35;;;;;;;6.50;4.30;;;5.50;82.80;;;7.28;56.96;98124.34;5016686;28;20042;-54
2023/10/16 07:23:35;;;;;;;7.87;4.27;;;5.50;83.80;;;7.32;56.98;98122.28;5010302;28;20046;-55
2023/10/16 07:26:13;;;;;;;7.50;4.10;;;5.40;82.50;;;7.31;57.18;98124.09;5010120;28;20486;-45
2023/10/16 07:28:41;;;;;;;7.23;4.27;;;5.40;82.40;;;7.33;56.44;98126.59;5003059;28;20042;-47
2023/10/16 07:31:12;;;;;;;9.43;4.43;;;5.50;81.70;;;7.32;56.51;98119.66;5010185;28;20050;-46
2023/10/16 07:33:41;;;;;;;11.40;4.03;;;5.50;81.50;;;7.33;56.58;98129.25;5002277;28;20034;-47
2023/10/16 07:36:12;;;;;;;5.90;4.57;;;5.50;81.20;;;7.33;56.17;98122.16;5014814;28;20041;-50
2023/10/16 07:38:40;;;;;;;13.03;4.90;;;5.50;81.50;;;7.36;56.72;98126.34;5013591;28;20420;-47
2023/10/16 07:41:13;;;;;;;12.67;4.23;;;5.40;81.70;;;7.36;56.69;98127.19;5010122;28;20537;-46
2023/10/16 07:43:45;;;;;;;8.50;4.53;;;5.50;82.10;;;7.37;56.60;98126.25;5010054;28;20413;-43
2023/10/16 07:48:46;;;;;;;7.50;4.47;;;5.50;82.30;;;7.45;57.00;98126.41;5002098;28;20054;-48
2023/10/16 07:51:16;;;;;;;9.00;4.87;;;5.60;82.50;;;7.50;56.78;98126.03;5009771;28;20213;-44
2023/10/16 07:53:43;;;;;;;8.73;5.07;;;5.70;82.50;;;7.56;57.00;98124.66;5005131;28;20046;-45
2023/10/16 07:56:28;;;;;;;6.27;4.57;;;5.80;82.60;;;7.61;57.00;98131.25;5006226;28;20057;-49
2023/10/16 07:59:18;;;;;;;8.50;5.33;;;5.80;82.30;;;7.66;56.96;98118.47;5006861;28;20049;-44
2023/10/16 08:01:52;;;;;;;9.90;6.30;;;5.90;82.60;;;7.71;57.12;98118.06;5000117;28;20517;-44
2023/10/16 08:07:04;;;;;;;9.17;6.07;;;6.10;82.40;;;7.84;57.08;98117.84;5009523;28;20043;-50
2023/10/16 08:12:20;;;;;;;7.10;4.77;;;6.20;81.20;;;7.97;56.90;98123.78;5008818;28;20061;-43
2023/10/16 08:14:54;;;;;;;6.80;5.17;;;6.30;81.30;;;8.03;56.91;98115.28;5002681;28;20053;-45
2023/10/16 08:17:23;;;;;;;8.23;5.25;;;6.40;80.80;;;8.09;56.85;98125.34;5009419;28;20285;-44
2023/10/16 08:19:52;;;;;;;6.93;4.37;;;6.50;80.20;;;8.14;56.98;98129.41;5009525;28;20041;-44
2023/10/16 08:22:25;;;;;;;7.03;5.17;;;6.60;79.60;;;8.20;56.77;98134.16;5008548;28;20038;-45
2023/10/16 08:24:59;;;;;;;7.40;5.05;;;6.70;79.10;;;8.27;56.69;98128.19;5009627;28;20046;-47
2023/10/16 08:27:41;;;;;;;8.73;4.10;;;6.70;79.50;;;8.34;56.42;98122.38;5009576;28;20046;-48
2023/10/16 08:30:25;;;;;;;7.90;4.87;;;6.80;79.00;;;8.38;56.51;98129.09;5009634;28;20045;-45
2023/10/16 08:32:53;;;;;;;6.43;4.60;;;6.80;78.00;;;8.44;56.24;98137.38;5002795;28;20045;-47
2023/10/16 08:35:21;;;;;;;5.97;4.30;;;6.90;78.20;;;8.50;56.30;98129.84;5009183;28;20050;-44
2023/10/16 08:37:59;;;;;;;8.13;5.43;;;6.90;78.00;;;8.54;56.38;98134.72;5008412;28;20046;-45
2023/10/16 08:40:34;;;;;;;5.87;4.70;;;7.00;77.80;;;8.56;56.38;98132.78;5011975;28;20049;-48
2023/10/16 08:43:09;;;;;;;8.03;5.53;;;7.10;77.70;;;8.60;56.32;98138.66;5013737;28;20423;-46
2023/10/16 08:45:49;;;;;;;6.07;4.33;;;7.10;77.80;;;8.67;56.36;98143.28;5011269;28;20197;-43
2023/10/16 08:48:17;;;;;;;8.17;4.57;;;7.10;77.70;;;8.73;56.17;98141.06;5012731;28;20049;-46
2023/10/16 08:50:52;;;;;;;7.57;4.20;;;7.20;77.30;;;8.79;56.22;98148.47;5013358;28;20053;-44
2023/10/16 08:53:32;;;;;;;6.63;4.97;;;7.20;77.30;;;8.85;56.10;98146.09;5013332;28;20392;-50
2023/10/16 08:56:09;;;;;;;5.70;4.53;;;7.30;77.10;;;8.87;56.09;98141.47;5007252;28;20204;-45
2023/10/16 08:58:46;;;;;;;6.90;4.43;;;7.40;76.60;;;8.90;56.07;98139.53;5013324;28;20054;-47
2023/10/16 09:01:16;;;;;;;6.63;4.73;;;7.50;76.60;;;8.94;56.13;98139.13;5013538;28;20118;-44
2023/10/16 09:04:05;;;;;;;5.93;4.63;;;7.60;76.80;;;8.97;56.31;98138.00;5006598;28;20089;-45
2023/10/16 09:06:37;;;;;;;6.57;4.40;;;7.60;76.50;;;9.03;56.36;98140.97;5014815;28;20052;-46
2023/10/16 09:09:12;;;;;;;7.23;5.20;;;7.60;77.00;;;9.10;56.18;98140.41;5013012;28;20508;-46
2023/10/16 09:11:44;;;;;;;7.00;5.83;;;7.70;77.10;;;9.18;56.22;98133.38;5012497;28;20425;-45
2023/10/16 09:14:16;;;;;;;9.80;5.23;;;7.80;76.30;;;9.26;56.20;98133.53;5013301;28;20045;-48
2023/10/16 09:16:51;;;;;;;8.57;4.80;;;7.80;76.00;;;9.35;56.23;98129.19;5013808;28;20053;-47
2023/10/16 09:19:20;;;;;;;5.97;4.90;;;7.90;76.00;;;9.42;55.98;98130.31;5020487;28;20056;-46
2023/10/16 09:21:52;;;;;;;6.90;4.73;;;8.00;75.90;;;9.47;55.53;98135.19;5013719;28;20045;-45
2023/10/16 09:24:21;;;;;;;6.53;4.32;;;8.00;75.50;;;9.48;55.64;98134.22;5014010;28;20052;-49
2023/10/16 09:26:54;;;;;;;5.80;4.80;;;8.10;74.80;;;9.53;55.78;98128.47;5020740;28;20038;-45
2023/10/16 09:29:27;;;;;;;6.63;4.57;;;8.10;75.30;;;9.61;55.71;98131.25;5013589;28;20064;-45
2023/10/16 09:31:55;;;;;;;8.80;4.97;;;8.20;74.60;;;9.63;55.30;98122.16;5006337;28;20045;-47
2023/10/16 09:34:27;;;;;;;5.37;4.43;;;8.20;74.40;;;9.66;55.65;98111.22;5013544;28;20160;-45
2023/10/16 09:37:15;;;;;;;6.40;4.27;;;8.30;74.70;;;9.72;55.63;98112.47;5006143;28;20501;-45
2023/10/16 09:39:49;;;;;;;5.70;4.40;;;8.40;74.60;;;9.81;55.28;98118.75;5011722;28;20046;-44
2023/10/16 09:42:24;;;;;;;5.93;4.20;;;8.50;74.20;;;9.86;55.33;98119.13;5020318;28;20053;-44
2023/10/16 09:45:09;;;;;;;6.33;5.10;;;8.50;73.70;;;9.91;55.20;98111.56;5004487;28;20046;-43
2023/10/16 09:47:48;;;;;;;6.17;4.73;;;8.50;74.00;;;9.97;55.02;98102.19;5013289;28;20417;-45
2023/10/16 09:50:18;;;;;;;13.47;5.67;;;8.60;74.00;;;9.96;55.23;98103.97;5012082;28;20038;-44
2023/10/16 09:52:47;;;;;;;11.17;5.47;;;8.60;74.00;;;9.93;55.46;98096.31;5003227;28;20516;-43
2023/10/16 09:55:19;;;;;;;5.93;4.70;;;8.60;74.50;;;10.00;55.61;98093.88;5013033;28;20046;-44
2023/10/16 09:57:54;;;;;;;6.50;4.93;;;8.70;74.70;;;10.07;55.36;98100.31;5012525;28;20050;-47
2023/10/16 10:00:28;;;;;;;8.50;4.90;;;8.70;74.60;;;10.13;55.17;98096.22;5020050;28;20421;-45
2023/10/16 10:03:07;;;;;;;;;;;8.80;74.40;;;10.14;55.11;98103.19;5005925;28;20417;-46
2023/10/16 10:08:58;;;;;;;10.97;6.57;;;8.70;73.30;;;10.11;54.58;98099.03;5008362;28;20054;-45
2023/10/16 10:11:44;;;;;;;9.53;6.60;;;8.70;73.50;;;10.14;55.00;98098.75;5019046;28;20050;-47
2023/10/16 10:14:28;;;;;;;7.63;5.07;;;8.80;73.70;;;10.21;54.77;98101.63;5012962;28;20045;-46
2023/10/16 10:17:00;;;;;;;7.60;5.47;;;8.90;73.40;;;10.28;55.27;98096.59;5011600;28;20045;-43
2023/10/16 10:19:39;;;;;;;7.03;5.00;;;9.00;73.60;;;10.23;54.80;98095.16;5019514;28;20042;-44
2023/10/16 10:22:26;;;;;;;6.40;5.07;;;8.90;73.40;;;10.29;55.10;98092.91;5012656;28;20042;-47
2023/10/16 10:25:35;;;;;;;6.97;5.70;;;9.00;73.70;;;10.35;55.14;98095.00;5012548;28;20046;-45
2023/10/16 10:28:23;;;;;;;7.37;4.77;;;9.00;73.50;;;10.42;55.06;98101.41;5005363;28;20034;-44
2023/10/16 10:30:55;;;;;;;9.67;5.53;;;9.00;73.10;;;10.47;55.10;98090.31;5012662;28;20064;-46
2023/10/16 10:33:43;;;;;;;6.00;4.63;;;9.10;73.80;;;10.53;54.42;98095.91;5019664;28;20049;-45
2023/10/16 10:36:34;;;;;;;7.63;3.87;;;9.20;72.40;;;10.57;54.17;98093.78;5006535;28;20049;-44
2023/10/16 10:42:03;;;;;;;5.40;4.40;;;9.30;69.60;;;10.69;53.89;98089.91;5003537;28;20045;-48
2023/10/16 10:44:35;;;;;;;5.97;4.27;;;9.40;70.80;;;10.73;53.61;98080.63;5012248;28;20046;-47
2023/10/16 10:47:23;;;;;;;5.00;3.80;;;9.50;70.10;;;10.78;53.66;98082.84;5012201;28;20049;-45
2023/10/16 10:49:52;;;;;;;6.30;4.23;;;9.50;68.70;;;10.82;53.30;98071.72;5011381;28;20041;-46
2023/10/16 10:52:20;;;;;;;11.07;4.87;;;9.50;68.80;;;10.84;53.47;98071.56;5011830;28;20061;-45
2023/10/16 10:55:00;;;;;;;7.70;4.57;;;9.60;69.40;;;10.90;53.13;98070.13;5010423;28;20505;-43
2023/10/16 10:57:28;;;;;;;7.03;4.33;;;9.60;67.70;;;10.96;52.99;98072.19;5018905;28;20406;-44
2023/10/16 10:59:56;;;;;;;4.93;4.03;;;9.60;69.20;;;10.99;52.99;98067.38;5011392;28;20049;-45
2023/10/16 11:05:00;;;;;;;5.18;3.47;;;9.70;67.10;;;11.06;52.52;98051.59;5011871;28;20497;-45
2023/10/16 11:07:39;;;;;;;9.90;4.80;;;9.80;67.30;;;11.11;52.44;98054.66;5009815;28;20413;-45
2023/10/16 11:10:07;;;;;;;6.63;4.10;;;9.90;65.70;;;11.12;52.72;98039.50;4993881;28;20049;-43
2023/10/16 11:12:36;;;;;;;6.10;4.80;;;9.90;67.30;;;11.19;53.00;98040.56;5011503;28;20061;-46
2023/10/16 11:15:11;;;;;;;5.87;4.50;;;10.00;67.70;;;11.28;52.75;98034.28;5011712;28;20048;-46
2023/10/16 11:17:38;;;;;;;6.43;4.27;;;10.10;67.10;;;11.33;52.11;98025.81;5011141;28;20065;-47
2023/10/16 11:20:27;;;;;;;7.57;4.80;;;10.10;66.70;;;11.37;52.23;98021.84;5011412;28;20045;-47
2023/10/16 11:23:00;;;;;;;6.00;4.13;;;10.20;66.40;;;11.43;51.80;98018.53;5011334;28;20105;-44
2023/10/16 11:25:29;;;;;;;5.85;4.20;;;10.20;66.20;;;11.46;51.57;98004.06;5010456;28;20064;-44
2023/10/16 11:28:07;;;;;;;6.83;4.80;;;10.30;65.00;;;11.52;51.66;98017.59;5009449;28;20517;-44
2023/10/16 11:30:41;;;;;;;7.03;5.20;;;10.30;65.30;;;11.59;51.71;98013.31;5011310;28;20046;-42
2023/10/16 11:33:09;;;;;;;6.70;4.67;;;10.40;65.10;;;11.65;51.35;98009.19;5011352;28;20051;-44
2023/10/16 11:35:41;;;;;;;7.60;4.50;;;10.40;64.70;;;11.69;51.50;98001.69;5011036;28;20401;-44
2023/10/16 11:38:13;;;;;;;4.60;4.10;;;10.50;64.90;;;11.73;51.49;97998.56;5009912;28;20042;-46
2023/10/16 11:40:42;;;;;;;7.60;4.83;;;10.50;64.80;;;11.80;51.12;97991.56;5010616;28;20053;-44
2023/10/16 11:43:11;;;;;;;9.67;5.03;;;10.60;65.00;;;11.85;51.15;97984.94;5010080;28;20042;-44
2023/10/16 11:45:42;;;;;;;8.20;5.07;;;10.70;64.80;;;11.93;51.16;97990.31;5017965;28;20493;-43
2023/10/16 11:48:25;;;;;;;8.27;4.33;;;10.80;64.70;;;12.00;50.98;97981.50;5018094;28;20038;-46
2023/10/16 11:51:05;;;;;;;5.63;4.07;;;10.80;64.40;;;12.02;50.20;97979.53;5011248;28;20046;-46
2023/10/16 11:53:34;;;;;;;5.67;4.27;;;10.90;63.50;;;12.06;50.40;97971.16;5001781;28;20505;-44
2023/10/16 11:56:02;;;;;;;5.73;4.73;;;10.90;63.60;;;12.10;50.60;97964.53;4998977;28;20046;-48
2023/10/16 11:58:31;;;;;;;5.67;4.10;;;11.00;63.30;;;12.18;50.64;97968.03;5005194;28;20038;-43
2023/10/16 12:01:20;;;;;;;5.17;4.23;;;11.10;63.80;;;12.27;50.55;97965.38;5003852;28;20495;-44
2023/10/16 12:04:07;;;;;;;4.70;4.00;;;11.20;63.20;;;12.37;50.18;97964.25;5004553;28;20050;-43
2023/10/16 12:06:35;;;;;;;8.57;4.90;;;11.30;62.70;;;12.44;50.16;97955.56;5002535;28;20046;-45
2023/10/16 12:09:02;;;;;;;8.67;4.20;;;11.40;62.50;;;12.53;50.05;97952.75;5004713;28;20046;-44
2023/10/16 12:11:30;;;;;;;7.37;4.37;;;11.50;62.50;;;12.61;50.03;97960.75;5005145;28;20060;-45
2023/10/16 12:13:57;;;;;;;7.37;3.73;;;11.50;61.80;;;12.69;49.66;97959.91;5004808;28;20050;-46
2023/10/16 12:16:25;;;;;;;6.75;3.45;;;11.60;61.30;;;12.77;49.42;97940.38;5010206;28;20076;-49
2023/10/16 12:19:05;;;;;;;6.32;4.55;;;11.70;60.80;;;12.84;49.15;97937.88;5009014;28;20042;-44
2023/10/16 12:21:33;;;;;;;5.03;2.97;;;11.80;59.80;;;12.88;48.82;97939.22;5008369;28;20421;-45
2023/10/16 12:24:01;;;;;;;5.00;2.73;;;11.80;60.00;;;12.93;48.71;97934.19;5008276;28;20042;-47
2023/10/16 12:26:29;;;;;;;3.30;2.45;;;11.80;59.50;;;12.97;48.45;97923.00;5010430;28;20333;-45
2023/10/16 12:28:59;;;;;;;4.22;3.70;;;11.90;59.50;;;13.06;48.38;97923.00;5009613;28;20041;-47
2023/10/16 12:31:27;;;;;;;4.03;2.78;;;12.00;59.00;;;13.10;47.87;97916.28;5010369;28;20042;-44
2023/10/16 12:33:55;;;;;;;5.28;2.60;;;12.00;58.30;;;13.14;47.56;97923.81;5010152;28;20042;-46
2023/10/16 12:36:23;;;;;;;4.07;3.08;;;12.10;57.70;;;13.19;47.63;97916.09;5008551;28;20041;-45
2023/10/16 12:38:53;;;;;;;4.22;2.72;;;12.20;58.00;;;13.27;47.61;97915.25;5008037;28;20045;-43
2023/10/16 12:41:23;;;;;;;3.08;2.40;;;12.30;58.10;;;13.36;46.92;97913.44;5006255;28;20044;-43
2023/10/16 12:43:50;;;;;;;5.78;2.30;;;12.40;56.40;;;13.45;46.62;97912.38;5009041;28;20050;-44
2023/10/16 12:46:18;;;;;;;3.80;2.45;;;12.40;56.00;;;13.56;46.47;97905.81;5012554;28;20501;-45
2023/10/16 12:48:46;;;;;;;2.65;2.45;;;12.60;55.70;;;13.64;45.65;97904.94;5013718;28;20406;-44
2023/10/16 12:51:14;;;;;;;5.00;2.90;;;12.60;54.30;;;13.71;45.94;97903.25;5014149;28;20042;-44
2023/10/16 12:53:41;;;;;;;4.38;2.80;;;12.70;55.20;;;13.82;45.77;97893.97;5014425;28;20049;-46
2023/10/16 12:56:12;;;;;;;4.43;2.33;;;12.80;54.80;;;13.86;44.79;97893.47;5013964;28;20042;-44
2023/10/16 12:58:39;;;;;;;2.78;2.20;;;12.80;52.90;;;13.92;44.90;97892.75;5020903;28;20042;-47
2023/10/16 13:01:10;;;;;;;3.08;1.98;;;12.90;53.50;;;13.97;44.69;97887.69;5014186;28;20038;-46